Time;durP1;ratioP1;P1;durP2;ratioP2;P2;SDS_P1;SDS_P2;PMS_P1;PMS_P2;Temp;Humidity;BMP_temperature;BMP_pressure;BME280_temperature;BME280_humidity;BME280_pressure;Samples;Min_cycle;Max_cycle;Signal;HPM_P1;HPM_P2
2023/01/03 05:46:57;;;;;;;0.70;0.70;;;5.50;99.90;;;;;;5245025;22;20229;-74
2023/01/03 05:49:24;;;;;;;1.45;1.10;;;5.50;99.90;;;;;;5035948;28;20213;-74
2023/01/03 05:51:50;;;;;;;5.35;1.33;;;5.50;99.90;;;;;;5034636;28;20205;-74
2023/01/03 05:54:18;;;;;;;1.10;1.10;;;5.50;99.90;;;;;;5034921;28;20198;-73
2023/01/03 05:56:45;;;;;;;1.20;1.20;;;5.50;99.90;;;;;;5034384;28;20244;-74
2023/01/03 05:59:12;;;;;;;2.80;1.23;;;5.40;99.90;;;;;;5034059;28;20201;-74
2023/01/03 06:01:39;;;;;;;1.05;1.05;;;5.40;99.90;;;;;;5070337;23;20235;-75
2023/01/03 06:04:08;;;;;;;0.80;0.80;;;5.40;99.90;;;;;;5054568;28;20598;-75
2023/01/03 06:06:34;;;;;;;0.77;0.77;;;5.40;99.90;;;;;;5054122;28;20208;-75
2023/01/03 06:09:01;;;;;;;0.80;0.80;;;5.40;99.90;;;;;;5053416;28;20212;-75
2023/01/03 06:11:28;;;;;;;1.10;1.10;;;5.40;99.90;;;;;;5053519;28;20220;-75
2023/01/03 06:13:54;;;;;;;0.88;0.88;;;5.30;99.90;;;;;;5053927;28;20274;-75
2023/01/03 06:19:08;;;;;;;0.93;0.93;;;5.30;99.90;;;;;;5054067;28;20266;-75
2023/01/03 06:21:36;;;;;;;0.77;0.77;;;5.30;99.90;;;;;;5054221;28;20221;-75
2023/01/03 06:24:03;;;;;;;0.80;0.80;;;5.30;99.90;;;;;;5053386;28;20690;-74
2023/01/03 06:26:30;;;;;;;0.80;0.80;;;5.30;99.90;;;;;;5053782;28;20196;-74
2023/01/03 06:28:57;;;;;;;1.75;0.90;;;5.30;99.90;;;;;;5053675;28;20207;-75
2023/01/03 06:31:23;;;;;;;0.70;0.70;;;5.30;99.90;;;;;;5053259;28;20228;-76
2023/01/03 06:33:50;;;;;;;0.80;0.80;;;5.30;99.90;;;;;;5053193;28;20571;-76
2023/01/03 06:36:21;;;;;;;0.80;0.70;;;5.30;99.90;;;;;;5053588;28;20193;-75
2023/01/03 06:38:48;;;;;;;0.70;0.70;;;5.30;99.90;;;;;;5053184;28;20598;-75
2023/01/03 06:41:15;;;;;;;0.60;0.60;;;5.30;99.90;;;;;;5053415;28;20274;-76
2023/01/03 06:43:42;;;;;;;2.35;0.70;;;5.30;99.90;;;;;;5053439;28;20212;-76
2023/01/03 06:54:26;;;;;;;0.82;0.82;;;5.30;99.90;;;;;;5053338;28;20184;-75
2023/01/03 06:56:54;;;;;;;1.55;1.38;;;5.30;99.90;;;;;;5052981;28;20204;-75
2023/01/03 06:59:21;;;;;;;0.90;0.90;;;5.30;99.90;;;;;;5053138;28;20196;-75
2023/01/03 07:01:49;;;;;;;0.85;0.80;;;5.30;99.90;;;;;;5053080;28;20236;-75
2023/01/03 07:04:17;;;;;;;1.75;0.63;;;5.30;99.90;;;;;;5053176;28;20205;-75
2023/01/03 07:06:45;;;;;;;0.95;0.80;;;5.30;99.90;;;;;;5053164;28;20266;-75
2023/01/03 07:09:12;;;;;;;0.80;0.80;;;5.30;99.90;;;;;;5053205;28;20204;-74
2023/01/03 07:11:40;;;;;;;1.00;1.00;;;5.30;99.90;;;;;;5053102;28;20224;-75
2023/01/03 07:14:07;;;;;;;1.85;1.00;;;5.20;99.90;;;;;;5053265;28;20200;-75
2023/01/03 07:16:35;;;;;;;0.93;0.93;;;5.30;99.90;;;;;;5053242;28;20193;-75
2023/01/03 07:19:03;;;;;;;1.35;1.35;;;5.20;99.90;;;;;;5053147;28;20207;-75
2023/01/03 07:21:31;;;;;;;1.00;1.00;;;5.20;99.90;;;;;;5054535;28;20727;-75
2023/01/03 07:24:01;;;;;;;0.60;0.60;;;5.20;99.90;;;;;;5056955;28;20235;-75
2023/01/03 07:26:29;;;;;;;0.85;0.70;;;5.20;99.90;;;;;;5056866;28;20251;-75
2023/01/03 07:28:56;;;;;;;1.65;0.70;;;5.20;99.90;;;;;;5056941;28;20232;-75
2023/01/03 07:31:23;;;;;;;0.70;0.70;;;5.20;99.90;;;;;;5056482;28;20715;-75
2023/01/03 07:33:51;;;;;;;0.80;0.80;;;5.10;99.90;;;;;;5056868;28;20201;-75
2023/01/03 07:36:19;;;;;;;0.75;0.75;;;5.10;99.90;;;;;;5058422;28;20197;-75
2023/01/03 07:38:47;;;;;;;0.70;0.70;;;5.10;99.90;;;;;;5066243;28;20227;-75
2023/01/03 07:41:16;;;;;;;0.70;0.65;;;5.10;99.90;;;;;;5070857;28;20220;-74
2023/01/03 07:43:44;;;;;;;0.82;0.82;;;5.10;99.90;;;;;;5065601;28;20207;-74
2023/01/03 07:46:13;;;;;;;0.82;0.82;;;5.10;99.90;;;;;;5063706;28;20217;-75
2023/01/03 07:48:41;;;;;;;0.75;0.75;;;5.10;99.90;;;;;;5057854;28;20235;-74
2023/01/03 07:51:09;;;;;;;1.40;1.00;;;5.10;99.90;;;;;;5056962;28;20229;-74
2023/01/03 07:53:36;;;;;;;0.73;0.73;;;5.10;99.90;;;;;;5056595;28;20204;-75
2023/01/03 07:56:05;;;;;;;0.60;0.60;;;5.10;99.90;;;;;;5056535;28;20196;-75
2023/01/03 07:58:34;;;;;;;0.98;0.98;;;5.10;99.90;;;;;;5056529;28;20200;-76
2023/01/03 08:01:05;;;;;;;0.90;0.90;;;5.20;99.90;;;;;;5055914;28;20232;-75
2023/01/03 08:03:32;;;;;;;0.88;0.88;;;5.20;99.90;;;;;;5056254;28;20201;-75
2023/01/03 08:06:03;;;;;;;1.20;1.20;;;5.20;99.90;;;;;;5056380;28;20562;-75
2023/01/03 08:08:31;;;;;;;1.23;1.17;;;5.30;99.90;;;;;;5055901;28;20663;-75
2023/01/03 08:13:45;;;;;;;1.75;0.95;;;5.40;99.90;;;;;;5056597;28;20533;-75
2023/01/03 08:16:14;;;;;;;1.85;1.20;;;5.50;99.90;;;;;;5056407;28;20259;-75
2023/01/03 08:18:41;;;;;;;3.58;0.90;;;5.50;99.90;;;;;;5056071;28;20212;-72
2023/01/03 08:21:10;;;;;;;0.90;0.90;;;5.60;99.90;;;;;;5055537;28;20617;-73
2023/01/03 08:23:36;;;;;;;0.88;0.85;;;5.80;99.90;;;;;;5055900;28;20205;-73
2023/01/03 08:26:05;;;;;;;0.73;0.73;;;5.90;99.90;;;;;;5055667;28;20734;-73
2023/01/03 08:28:32;;;;;;;0.80;0.80;;;6.10;99.90;;;;;;5056007;28;20208;-72
2023/01/03 08:31:05;;;;;;;0.75;0.75;;;6.20;99.90;;;;;;5056715;28;20224;-73
2023/01/03 08:33:38;;;;;;;1.20;1.20;;;6.30;99.90;;;;;;5054816;28;20188;-72
2023/01/03 08:36:07;;;;;;;7.18;4.68;;;6.30;99.90;;;;;;5055483;28;20188;-72
2023/01/03 08:38:38;;;;;;;9.27;6.60;;;6.40;99.90;;;;;;5055524;28;20205;-72
2023/01/03 08:41:08;;;;;;;8.30;5.90;;;6.50;99.90;;;;;;5055520;28;20224;-72
2023/01/03 08:43:38;;;;;;;4.45;4.03;;;6.50;99.90;;;;;;5055209;28;20671;-72
2023/01/03 08:46:08;;;;;;;3.70;3.50;;;6.70;99.90;;;;;;5055404;28;20212;-73
2023/01/03 08:48:35;;;;;;;2.95;2.70;;;6.80;99.90;;;;;;5055410;28;20204;-73
2023/01/03 08:51:02;;;;;;;2.50;2.30;;;6.80;99.90;;;;;;5055482;28;20558;-72
2023/01/03 08:53:29;;;;;;;2.70;2.55;;;6.70;99.90;;;;;;5055288;28;20254;-72
2023/01/03 08:55:56;;;;;;;3.47;3.28;;;6.80;99.90;;;;;;5055209;28;20204;-72
2023/01/03 08:58:23;;;;;;;3.50;3.30;;;6.80;99.90;;;;;;5055252;28;20208;-72
2023/01/03 09:00:49;;;;;;;3.58;3.28;;;7.00;99.90;;;;;;5055201;28;20224;-71
2023/01/03 09:03:18;;;;;;;3.33;3.05;;;7.10;99.90;;;;;;5055263;28;20204;-72
2023/01/03 09:05:44;;;;;;;3.95;2.80;;;7.10;99.90;;;;;;5055287;28;20231;-75
2023/01/03 09:08:11;;;;;;;2.70;2.50;;;7.00;99.90;;;;;;5056122;28;20574;-77
2023/01/03 09:10:39;;;;;;;4.47;3.03;;;7.00;99.90;;;;;;5057266;28;20267;-77
2023/01/03 09:13:05;;;;;;;2.95;2.80;;;6.90;99.90;;;;;;5060781;28;20235;-77
2023/01/03 09:15:32;;;;;;;3.15;2.85;;;6.90;99.90;;;;;;5057265;28;20197;-77
2023/01/03 09:17:59;;;;;;;3.00;2.88;;;6.80;99.90;;;;;;5057238;28;20200;-77
2023/01/03 09:20:27;;;;;;;3.35;3.08;;;6.90;99.90;;;;;;5057781;28;20290;-77
2023/01/03 09:22:54;;;;;;;3.05;2.70;;;6.80;99.90;;;;;;5057587;28;20208;-77
2023/01/03 09:25:20;;;;;;;3.10;2.80;;;6.80;99.90;;;;;;5056476;28;20560;-77
2023/01/03 09:27:47;;;;;;;5.35;4.85;;;6.80;99.90;;;;;;5057271;28;20200;-77
2023/01/03 09:30:15;;;;;;;5.70;5.30;;;6.80;99.90;;;;;;5057870;28;20203;-77
2023/01/03 09:32:42;;;;;;;6.90;4.38;;;6.90;99.90;;;;;;5054767;28;20207;-73
2023/01/03 09:35:10;;;;;;;3.20;3.00;;;6.90;99.90;;;;;;5054162;28;20654;-74
2023/01/03 09:37:38;;;;;;;2.53;2.50;;;7.00;99.90;;;;;;5054443;28;20204;-74
2023/01/03 09:40:06;;;;;;;2.80;2.60;;;7.00;99.90;;;;;;5054151;28;20689;-73
2023/01/03 09:45:24;;;;;;;3.17;2.85;;;7.00;99.90;;;;;;5054564;28;20208;-75
2023/01/03 09:47:51;;;;;;;2.75;2.65;;;7.10;99.90;;;;;;5054534;28;20201;-76
2023/01/03 09:50:21;;;;;;;2.67;2.50;;;7.10;99.90;;;;;;5054187;28;20235;-75
2023/01/03 10:04:46;;;;;;;3.30;3.10;;;7.10;99.90;;;;;;5054035;28;20184;-74
2023/01/03 10:07:27;;;;;;;6.20;4.57;;;7.20;99.90;;;;;;5036799;28;20231;-73
2023/01/03 10:10:05;;;;;;;4.30;3.67;;;7.20;99.90;;;;;;5053867;28;20219;-73
2023/01/03 10:12:38;;;;;;;4.50;3.50;;;7.20;99.90;;;;;;5054252;28;20195;-74
2023/01/03 10:15:17;;;;;;;3.97;3.58;;;7.20;99.90;;;;;;5054117;28;20185;-76
2023/01/03 10:17:54;;;;;;;3.97;3.40;;;7.20;99.90;;;;;;5054201;28;20181;-75
2023/01/03 10:20:43;;;;;;;4.75;3.80;;;7.30;99.90;;;;;;5054398;28;20220;-74
2023/01/03 10:23:11;;;;;;;4.03;3.70;;;7.40;99.90;;;;;;5055443;28;20213;-75
2023/01/03 10:25:42;;;;;;;4.00;3.60;;;7.40;99.90;;;;;;5054887;28;20290;-74
2023/01/03 10:28:15;;;;;;;3.80;3.50;;;7.40;99.90;;;;;;5056657;28;20204;-77
2023/01/03 10:30:57;;;;;;;3.92;3.63;;;7.40;99.90;;;;;;5056494;28;20228;-74
2023/01/03 10:33:31;;;;;;;4.00;3.50;;;7.50;99.90;;;;;;5056965;28;20193;-74
2023/01/03 10:35:58;;;;;;;3.33;3.13;;;7.40;99.90;;;;;;5056032;28;20667;-75
2023/01/03 10:38:25;;;;;;;4.18;3.88;;;7.50;99.90;;;;;;5056345;28;20208;-74
2023/01/03 10:40:57;;;;;;;3.33;3.10;;;7.50;99.90;;;;;;5055990;28;20251;-75
2023/01/03 10:43:30;;;;;;;3.85;2.95;;;7.60;99.90;;;;;;5055854;28;20211;-74
2023/01/03 10:45:58;;;;;;;3.20;3.00;;;7.60;99.90;;;;;;5056253;28;20220;-75
2023/01/03 10:48:33;;;;;;;4.25;3.58;;;7.60;99.90;;;;;;5055620;28;20675;-75
2023/01/03 10:51:00;;;;;;;4.47;2.90;;;7.60;99.90;;;;;;5056409;28;20216;-75
2023/01/03 10:53:28;;;;;;;2.53;2.00;;;7.70;99.90;;;;;;5055584;28;20222;-78
2023/01/03 10:55:58;;;;;;;2.25;2.10;;;7.70;99.90;;;;;;5056001;28;20197;-77
2023/01/03 10:58:26;;;;;;;2.63;2.15;;;7.70;99.90;;;;;;5060583;28;20192;-79
2023/01/03 11:01:09;;;;;;;2.85;2.20;;;7.80;99.90;;;;;;5068945;28;20236;-78
2023/01/03 11:03:39;;;;;;;2.63;1.55;;;7.80;99.90;;;;;;5073826;28;20185;-79
2023/01/03 11:06:13;;;;;;;2.08;1.70;;;7.80;99.90;;;;;;5071589;28;20683;-79
2023/01/03 11:08:44;;;;;;;1.83;1.73;;;7.80;99.90;;;;;;5077175;28;20188;-79
2023/01/03 11:14:19;;;;;;;7.00;4.85;;;7.90;99.90;;;;;;5165495;27;21046;-79
2023/01/03 11:16:52;;;;;;;3.40;3.13;;;7.90;99.90;;;;;;5157065;27;20201;-78
2023/01/03 11:19:19;;;;;;;1.08;1.08;;;7.90;99.90;;;;;;5159143;27;20182;-79
2023/01/03 11:21:51;;;;;;;1.30;1.30;;;7.80;99.90;;;;;;5155935;27;20245;-78
2023/01/03 11:24:28;;;;;;;1.55;1.45;;;7.80;99.90;;;;;;5156650;27;20207;-77
2023/01/03 11:27:03;;;;;;;1.40;1.40;;;7.70;99.90;;;;;;5155651;27;20193;-78
2023/01/03 11:29:47;;;;;;;1.10;1.10;;;7.70;99.90;;;;;;5156581;27;20226;-78
2023/01/03 11:32:29;;;;;;;1.20;1.20;;;7.60;99.90;;;;;;5160260;27;20246;-77
2023/01/03 11:35:13;;;;;;;1.85;1.38;;;7.60;99.90;;;;;;5162048;27;20644;-78
2023/01/03 11:37:52;;;;;;;1.35;1.35;;;7.60;99.90;;;;;;5157683;27;20593;-76
2023/01/03 11:40:30;;;;;;;1.52;1.42;;;7.50;99.90;;;;;;5160495;27;20220;-77
2023/01/03 11:43:07;;;;;;;1.75;1.75;;;7.50;99.90;;;;;;5160516;27;20184;-76
2023/01/03 11:45:54;;;;;;;1.38;1.35;;;7.50;99.90;;;;;;5158710;27;20209;-73
2023/01/03 11:48:48;;;;;;;2.38;1.45;;;7.50;99.90;;;;;;5157699;27;20230;-73
2023/01/03 11:51:24;;;;;;;1.80;1.70;;;7.50;99.90;;;;;;5153480;27;20731;-75
2023/01/03 11:54:04;;;;;;;1.42;1.42;;;7.50;99.90;;;;;;5152202;27;20201;-74
2023/01/03 11:56:34;;;;;;;1.65;1.65;;;7.50;99.90;;;;;;5152093;27;20182;-69
2023/01/03 11:59:23;;;;;;;1.70;1.60;;;7.70;99.90;;;;;;5152081;27;20277;-69
2023/01/03 12:02:34;;;;;;;1.50;1.50;;;7.80;99.90;;;;;;5152223;27;20221;-69
2023/01/03 12:05:17;;;;;;;1.65;1.55;;;7.90;99.90;;;;;;5152310;27;20204;-72
2023/01/03 12:07:54;;;;;;;1.73;1.70;;;8.10;99.90;;;;;;5152211;27;20181;-73
2023/01/03 12:10:25;;;;;;;3.22;1.45;;;8.30;99.90;;;;;;5156775;27;20250;-77
2023/01/03 12:13:10;;;;;;;1.73;1.63;;;8.40;99.90;;;;;;5158459;27;20214;-77
2023/01/03 12:15:44;;;;;;;1.98;1.60;;;8.40;99.90;;;;;;5158329;27;20178;-77
2023/01/03 12:18:22;;;;;;;1.52;1.48;;;8.40;99.90;;;;;;5156878;27;20182;-77
2023/01/03 12:20:55;;;;;;;1.25;1.15;;;8.50;99.90;;;;;;5153393;27;20221;-77
2023/01/03 12:23:32;;;;;;;1.70;1.60;;;8.40;99.90;;;;;;5151170;27;20181;-76
2023/01/03 12:26:03;;;;;;;2.47;2.28;;;8.30;99.90;;;;;;5139233;27;20186;-76
2023/01/03 12:28:35;;;;;;;2.40;2.20;;;8.30;99.90;;;;;;5139296;27;20231;-76
2023/01/03 12:31:05;;;;;;;6.55;3.70;;;8.20;99.90;;;;;;5139094;27;20217;-76
2023/01/03 12:33:41;;;;;;;4.72;2.08;;;8.20;99.90;;;;;;5139722;27;20202;-76
2023/01/03 12:36:22;;;;;;;3.33;2.10;;;8.20;99.90;;;;;;5137981;27;20194;-77
2023/01/03 12:38:59;;;;;;;2.92;2.47;;;8.20;99.90;;;;;;5137717;27;20182;-77
2023/01/03 12:41:33;;;;;;;2.47;1.73;;;8.30;99.90;;;;;;5141760;27;20270;-76
2023/01/03 12:44:03;;;;;;;3.55;2.22;;;8.20;99.90;;;;;;5143452;27;20179;-76
2023/01/03 12:46:34;;;;;;;2.00;1.90;;;8.10;99.90;;;;;;5142720;27;20193;-76
2023/01/03 12:49:09;;;;;;;2.45;2.22;;;8.00;99.90;;;;;;5143131;27;20181;-76
2023/01/03 12:51:36;;;;;;;2.38;2.20;;;7.90;99.90;;;;;;5139416;27;20546;-76
2023/01/03 12:54:17;;;;;;;1.70;1.70;;;7.90;99.90;;;;;;5137813;27;20213;-77
2023/01/03 12:57:09;;;;;;;3.63;2.30;;;7.90;99.90;;;;;;5137919;27;20178;-77
2023/01/03 13:00:08;;;;;;;1.67;1.58;;;7.90;99.90;;;;;;5137257;27;20182;-76
2023/01/03 13:02:48;;;;;;;2.17;2.08;;;7.90;99.90;;;;;;5136875;27;20653;-76
2023/01/03 13:05:22;;;;;;;1.70;1.70;;;7.90;99.90;;;;;;5137748;27;20644;-77
2023/01/03 13:07:53;;;;;;;1.63;1.60;;;7.80;99.90;;;;;;5137368;27;20189;-77
2023/01/03 13:10:30;;;;;;;2.30;1.70;;;7.80;99.90;;;;;;5139090;27;20217;-76
2023/01/03 13:13:00;;;;;;;1.98;1.88;;;7.90;99.90;;;;;;5138229;27;20221;-76
2023/01/03 13:15:29;;;;;;;2.47;2.00;;;7.90;99.90;;;;;;5136588;27;20649;-77
2023/01/03 13:18:15;;;;;;;3.80;2.28;;;7.90;99.90;;;;;;5137088;27;20200;-76
2023/01/03 13:20:46;;;;;;;2.00;1.80;;;8.00;99.90;;;;;;5141600;27;20218;-76
2023/01/03 13:23:31;;;;;;;1.88;1.77;;;8.00;99.90;;;;;;5142028;27;20182;-75
2023/01/03 13:26:18;;;;;;;3.95;2.63;;;8.10;99.90;;;;;;5137232;27;20186;-75
2023/01/03 13:28:44;;;;;;;3.00;2.33;;;8.20;99.90;;;;;;5136091;27;20660;-75
2023/01/03 13:31:45;;;;;;;2.17;2.05;;;8.10;99.90;;;;;;5136742;27;20213;-74
2023/01/03 13:34:31;;;;;;;1.58;1.48;;;8.10;99.90;;;;;;5136621;27;20610;-77
2023/01/03 13:37:22;;;;;;;2.95;1.77;;;8.00;99.90;;;;;;5136058;27;20616;-76
2023/01/03 13:40:29;;;;;;;1.77;1.67;;;7.80;99.90;;;;;;5144485;27;20182;-75
2023/01/03 13:43:03;;;;;;;1.02;0.93;;;7.70;99.90;;;;;;5149870;27;20186;-76
2023/01/03 13:46:02;;;;;;;1.08;1.08;;;7.60;99.90;;;;;;5148706;27;20186;-76
2023/01/03 13:48:53;;;;;;;1.58;0.98;;;7.50;99.90;;;;;;5139674;27;20182;-73
2023/01/03 13:51:49;;;;;;;1.00;1.00;;;7.40;99.90;;;;;;5128312;27;20225;-73
2023/01/03 13:54:37;;;;;;;0.85;0.85;;;7.30;99.90;;;;;;5135708;27;20237;-73
2023/01/03 13:57:29;;;;;;;1.40;1.30;;;7.20;99.90;;;;;;5135857;27;20178;-73
2023/01/03 13:59:58;;;;;;;1.38;1.33;;;7.10;99.90;;;;;;5135878;27;20182;-73
2023/01/03 14:02:55;;;;;;;1.13;1.13;;;7.00;99.90;;;;;;5135801;27;20224;-73
2023/01/03 14:05:57;;;;;;;1.65;1.10;;;6.90;99.90;;;;;;5135478;27;20225;-73
2023/01/03 14:08:35;;;;;;;0.82;0.73;;;6.80;99.90;;;;;;5135572;27;20204;-73
2023/01/03 14:11:36;;;;;;;1.23;1.17;;;6.70;99.90;;;;;;5135844;27;20224;-73
2023/01/03 14:14:10;;;;;;;2.50;1.13;;;6.60;99.90;;;;;;5135169;27;20565;-73
2023/01/03 14:16:49;;;;;;;1.83;1.58;;;6.60;99.90;;;;;;5135492;27;20189;-73
2023/01/03 14:19:21;;;;;;;1.40;1.30;;;6.70;99.90;;;;;;5135558;27;20189;-73
2023/01/03 14:21:52;;;;;;;0.77;0.77;;;6.70;99.90;;;;;;5135437;27;20225;-73
2023/01/03 14:24:24;;;;;;;0.90;0.90;;;6.80;99.90;;;;;;5135172;27;20183;-73
2023/01/03 14:26:53;;;;;;;0.80;0.80;;;6.80;99.90;;;;;;5135435;27;20583;-73
2023/01/03 14:29:22;;;;;;;2.28;0.77;;;6.70;99.90;;;;;;5135063;27;20684;-73
2023/01/03 14:31:54;;;;;;;2.30;0.70;;;6.70;99.90;;;;;;5135500;27;20217;-74
2023/01/03 14:34:36;;;;;;;1.45;1.02;;;6.60;99.90;;;;;;5134793;27;20788;-74
2023/01/03 14:37:06;;;;;;;0.60;0.60;;;6.50;99.90;;;;;;5135342;27;20193;-74
2023/01/03 14:39:33;;;;;;;1.00;1.00;;;6.40;99.90;;;;;;5135165;27;20197;-74
2023/01/03 14:42:03;;;;;;;1.05;0.90;;;6.20;99.90;;;;;;5134617;27;20218;-74
2023/01/03 14:44:31;;;;;;;1.50;1.40;;;6.10;99.90;;;;;;5135030;27;20174;-74
2023/01/03 14:46:59;;;;;;;2.03;1.27;;;6.00;99.90;;;;;;5134856;27;20197;-74
2023/01/03 14:49:35;;;;;;;2.78;1.30;;;5.90;99.90;;;;;;5135182;27;20194;-74
2023/01/03 14:52:07;;;;;;;0.95;0.95;;;5.80;99.90;;;;;;5134921;27;20225;-74
2023/01/03 14:54:35;;;;;;;1.00;0.90;;;5.70;99.90;;;;;;5134981;27;20202;-74
2023/01/03 14:57:04;;;;;;;0.85;0.85;;;5.60;99.90;;;;;;5134940;27;20201;-73
2023/01/03 14:59:33;;;;;;;3.28;0.75;;;5.50;99.90;;;;;;5134984;27;20223;-74
2023/01/03 15:02:00;;;;;;;2.47;0.65;;;5.40;99.90;;;;;;5134851;27;20300;-74
2023/01/03 15:04:27;;;;;;;1.75;0.80;;;5.30;99.90;;;;;;5135019;27;20197;-73
2023/01/03 15:07:00;;;;;;;0.80;0.80;;;5.20;99.90;;;;;;5135017;27;20194;-73
2023/01/03 15:09:31;;;;;;;0.90;0.90;;;5.20;99.90;;;;;;5134928;27;20190;-73
2023/01/03 15:11:59;;;;;;;1.10;0.80;;;5.10;99.90;;;;;;5134784;27;20236;-73
2023/01/03 15:14:29;;;;;;;5.15;0.70;;;5.00;99.90;;;;;;5135641;27;20708;-74
2023/01/03 15:17:05;;;;;;;0.75;0.75;;;4.90;99.90;;;;;;5135632;27;20197;-74
2023/01/03 15:19:33;;;;;;;0.90;0.50;;;4.90;99.90;;;;;;5135766;27;20625;-74
2023/01/03 15:22:12;;;;;;;0.98;0.80;;;4.80;99.90;;;;;;5135257;27;20278;-74
2023/01/03 15:24:41;;;;;;;0.70;0.70;;;4.70;99.90;;;;;;5134625;27;20663;-74
2023/01/03 15:27:33;;;;;;;3.30;1.23;;;4.60;99.90;;;;;;5134700;27;20225;-73
2023/01/03 15:30:23;;;;;;;3.97;2.40;;;4.50;99.90;;;;;;5134412;27;20629;-73
2023/01/03 15:32:57;;;;;;;5.70;3.08;;;4.40;99.90;;;;;;5134525;27;20667;-73
2023/01/03 15:35:31;;;;;;;7.32;3.95;;;4.40;99.90;;;;;;5134888;27;20227;-73
2023/01/03 15:38:00;;;;;;;7.00;4.38;;;4.30;99.90;;;;;;5134720;27;20191;-74
2023/01/03 15:40:28;;;;;;;4.68;3.35;;;4.20;99.90;;;;;;5134722;27;20217;-75
2023/01/03 15:45:42;;;;;;;6.45;4.35;;;4.10;99.90;;;;;;5134787;28;20640;-73
2023/01/03 15:48:14;;;;;;;8.55;4.20;;;4.00;99.90;;;;;;5134714;27;20198;-74
2023/01/03 15:50:46;;;;;;;6.15;4.05;;;3.90;99.90;;;;;;5134738;27;20601;-74
2023/01/03 15:53:26;;;;;;;6.03;4.28;;;3.90;99.90;;;;;;5134309;27;20187;-74
2023/01/03 15:55:56;;;;;;;12.52;5.95;;;3.80;99.90;;;;;;5134589;27;20189;-74
2023/01/03 15:58:24;;;;;;;6.20;4.13;;;3.70;99.90;;;;;;5134567;27;20206;-74
2023/01/03 16:00:52;;;;;;;9.02;4.68;;;3.70;99.90;;;;;;5137961;27;20696;-73
2023/01/03 16:03:21;;;;;;;10.57;5.38;;;3.70;99.90;;;;;;5138081;27;20205;-73
2023/01/03 16:05:47;;;;;;;10.80;4.95;;;3.60;99.90;;;;;;5138248;27;20206;-74
2023/01/03 16:08:25;;;;;;;10.02;5.82;;;3.50;99.90;;;;;;5138823;27;20198;-74
2023/01/03 16:10:52;;;;;;;11.82;6.07;;;3.40;99.90;;;;;;5138501;27;20304;-73
2023/01/03 16:13:22;;;;;;;6.95;4.72;;;3.40;99.90;;;;;;5137655;27;20213;-74
2023/01/03 16:15:49;;;;;;;3.40;3.10;;;3.40;99.90;;;;;;5137954;27;20200;-72
2023/01/03 16:18:25;;;;;;;3.38;2.03;;;3.30;99.90;;;;;;5137838;27;20220;-72
2023/01/03 16:20:53;;;;;;;3.58;3.28;;;3.20;99.90;;;;;;5137742;27;20249;-72
2023/01/03 16:23:24;;;;;;;5.80;5.20;;;3.20;99.90;;;;;;5137726;27;20202;-74
2023/01/03 16:25:51;;;;;;;9.65;8.68;;;3.20;99.90;;;;;;5137873;27;20186;-75
2023/01/03 16:28:17;;;;;;;7.45;6.78;;;3.10;99.90;;;;;;5137789;27;20198;-74
2023/01/03 16:30:44;;;;;;;6.32;5.75;;;3.10;99.90;;;;;;5137472;27;20573;-74
2023/01/03 16:33:19;;;;;;;5.07;3.75;;;3.10;99.90;;;;;;5138731;27;20194;-78
2023/01/03 16:35:46;;;;;;;2.75;2.40;;;3.10;99.90;;;;;;5138450;27;20188;-76
2023/01/03 16:38:14;;;;;;;1.67;1.55;;;3.10;99.90;;;;;;5138979;27;20205;-76
2023/01/03 16:40:41;;;;;;;3.80;1.50;;;3.10;99.90;;;;;;5137829;27;20257;-75
2023/01/03 16:43:08;;;;;;;2.03;1.92;;;3.10;99.90;;;;;;5137551;27;20202;-75
2023/01/03 16:45:37;;;;;;;7.13;3.08;;;3.10;99.90;;;;;;5137604;27;20190;-74
2023/01/03 16:48:04;;;;;;;4.70;3.17;;;3.20;99.90;;;;;;5137679;27;20661;-75
2023/01/03 16:50:36;;;;;;;8.25;4.40;;;3.20;99.90;;;;;;5137453;27;20222;-75
2023/01/03 16:53:06;;;;;;;9.25;5.22;;;3.20;99.90;;;;;;5138246;27;20186;-76
2023/01/03 16:55:36;;;;;;;5.28;3.72;;;3.30;99.90;;;;;;5138618;27;20221;-76
2023/01/03 16:58:03;;;;;;;13.18;6.47;;;3.40;99.90;;;;;;5137628;27;20183;-75
2023/01/03 17:00:32;;;;;;;10.85;5.07;;;3.40;99.90;;;;;;5137057;27;20232;-75
2023/01/03 17:03:00;;;;;;;8.52;4.72;;;3.50;99.90;;;;;;5136843;27;20255;-77
2023/01/03 17:05:27;;;;;;;7.35;3.90;;;3.50;99.90;;;;;;5136804;27;20182;-76
2023/01/03 17:08:01;;;;;;;4.38;3.97;;;3.60;99.90;;;;;;5137083;27;20202;-76
2023/01/03 17:10:30;;;;;;;4.50;3.97;;;3.70;99.90;;;;;;5136940;27;20270;-75
2023/01/03 17:12:58;;;;;;;8.07;4.70;;;3.70;99.90;;;;;;5136525;27;20214;-74
2023/01/03 17:15:25;;;;;;;3.60;3.33;;;3.80;99.90;;;;;;5138891;27;20225;-75
2023/01/03 17:17:52;;;;;;;4.07;3.85;;;3.80;99.90;;;;;;5139942;27;20202;-75
2023/01/03 17:20:21;;;;;;;8.93;6.95;;;3.90;99.90;;;;;;5139837;27;20219;-76
2023/01/03 17:22:51;;;;;;;4.53;3.92;;;4.00;99.90;;;;;;5140462;27;20202;-75
2023/01/03 17:25:19;;;;;;;4.57;4.10;;;4.10;99.90;;;;;;5137162;27;20238;-76
2023/01/03 17:27:50;;;;;;;6.00;5.20;;;4.10;99.90;;;;;;5136507;27;20198;-76
2023/01/03 17:30:20;;;;;;;5.22;4.75;;;4.10;99.90;;;;;;5136152;27;20571;-76
2023/01/03 17:32:47;;;;;;;6.55;4.65;;;4.00;99.90;;;;;;5136317;27;20691;-76
2023/01/03 17:35:14;;;;;;;4.78;4.38;;;4.00;99.90;;;;;;5136338;27;20217;-76
2023/01/03 17:37:42;;;;;;;4.38;3.97;;;3.90;99.90;;;;;;5136299;27;20636;-75
2023/01/03 17:40:18;;;;;;;5.00;4.63;;;3.80;99.90;;;;;;5136143;27;20201;-76
2023/01/03 17:42:52;;;;;;;5.50;4.68;;;3.70;99.90;;;;;;5136190;27;20659;-76
2023/01/03 17:50:49;;;;;;;9.98;7.55;;;3.80;99.90;;;;;;5136424;27;20213;-77
2023/01/03 17:53:19;;;;;;;5.78;5.20;;;3.80;99.90;;;;;;5135840;27;20566;-75
2023/01/03 17:55:48;;;;;;;5.03;4.53;;;3.80;99.90;;;;;;5136157;27;20210;-75
2023/01/03 17:58:19;;;;;;;4.70;4.30;;;3.80;99.90;;;;;;5135747;27;20576;-77
2023/01/03 18:00:46;;;;;;;5.72;5.25;;;3.90;99.90;;;;;;5135832;27;20303;-75
2023/01/03 18:03:13;;;;;;;5.10;4.60;;;4.00;99.90;;;;;;5135837;27;20209;-77
2023/01/03 18:05:40;;;;;;;4.50;4.07;;;4.00;99.90;;;;;;5135752;27;20190;-76
2023/01/03 18:08:16;;;;;;;5.38;4.88;;;4.00;99.90;;;;;;5136349;27;20280;-76
2023/01/03 18:10:43;;;;;;;5.93;4.03;;;4.10;99.90;;;;;;5136211;27;20704;-77
2023/01/03 18:13:21;;;;;;;5.72;5.15;;;4.10;99.90;;;;;;5140955;27;20688;-75
2023/01/03 18:15:48;;;;;;;17.75;9.05;;;4.10;99.90;;;;;;5140717;27;20266;-76
2023/01/03 18:18:15;;;;;;;19.35;11.27;;;4.00;99.90;;;;;;5138536;27;20202;-76
2023/01/03 18:20:42;;;;;;;14.80;10.40;;;4.00;99.90;;;;;;5139914;27;20225;-76
2023/01/03 18:23:16;;;;;;;8.90;8.00;;;3.90;99.90;;;;;;5135127;27;20206;-77
2023/01/03 18:25:43;;;;;;;8.32;7.20;;;3.90;99.90;;;;;;5135116;27;20693;-76
2023/01/03 18:28:12;;;;;;;6.18;5.63;;;3.80;99.90;;;;;;5135710;27;20206;-75
2023/01/03 18:30:40;;;;;;;5.03;4.63;;;3.70;99.90;;;;;;5135595;27;20250;-75
2023/01/03 18:33:07;;;;;;;5.07;4.55;;;3.70;99.90;;;;;;5135259;27;20202;-75
2023/01/03 18:35:34;;;;;;;4.93;4.57;;;3.60;99.90;;;;;;5135492;27;20221;-75
2023/01/03 18:38:01;;;;;;;5.40;4.90;;;3.50;99.90;;;;;;5135052;27;20288;-76
2023/01/03 18:40:29;;;;;;;6.95;4.97;;;3.50;99.90;;;;;;5135773;27;20214;-76
2023/01/03 18:43:11;;;;;;;8.30;6.05;;;3.50;99.90;;;;;;5135325;27;20198;-76
2023/01/03 18:45:40;;;;;;;8.52;6.43;;;3.50;99.90;;;;;;5137111;27;20178;-77
2023/01/03 18:48:07;;;;;;;7.95;6.80;;;3.50;99.90;;;;;;5135024;27;20680;-77
2023/01/03 18:50:34;;;;;;;8.13;7.32;;;3.60;99.90;;;;;;5135383;27;20224;-77
2023/01/03 18:53:03;;;;;;;7.95;7.13;;;3.60;99.90;;;;;;5135030;27;20202;-76
2023/01/03 18:55:32;;;;;;;8.25;7.45;;;3.60;99.90;;;;;;5135754;27;20281;-77
2023/01/03 18:58:06;;;;;;;9.98;6.93;;;3.70;99.90;;;;;;5136357;27;20205;-77
2023/01/03 19:00:33;;;;;;;6.93;5.97;;;3.70;99.90;;;;;;5135988;27;20580;-77
2023/01/03 19:03:01;;;;;;;6.95;6.32;;;3.70;99.90;;;;;;5134977;27;20198;-76
2023/01/03 19:05:28;;;;;;;7.07;6.30;;;3.80;99.90;;;;;;5135994;27;20194;-77
2023/01/03 19:07:55;;;;;;;8.02;6.38;;;3.80;99.90;;;;;;5137785;27;20279;-78
2023/01/03 19:10:23;;;;;;;7.32;6.35;;;3.90;99.90;;;;;;5138900;27;20226;-78
2023/01/03 19:12:51;;;;;;;6.97;6.38;;;3.90;99.90;;;;;;5137079;27;20228;-78
2023/01/03 19:15:21;;;;;;;7.20;6.50;;;3.90;99.90;;;;;;5135596;27;20225;-76
2023/01/03 19:17:49;;;;;;;5.57;5.25;;;3.90;99.90;;;;;;5137576;27;20205;-78
2023/01/03 19:20:17;;;;;;;6.22;5.57;;;3.90;99.90;;;;;;5135945;27;20272;-78
2023/01/03 19:22:45;;;;;;;6.22;5.63;;;3.90;99.90;;;;;;5135522;27;20613;-77
2023/01/03 19:25:18;;;;;;;6.15;5.55;;;4.00;99.90;;;;;;5135003;27;20564;-76
2023/01/03 19:27:48;;;;;;;7.07;6.38;;;4.00;99.90;;;;;;5135636;27;20206;-77
2023/01/03 19:30:18;;;;;;;8.07;7.28;;;4.00;99.90;;;;;;5135867;27;20198;-77
2023/01/03 19:32:50;;;;;;;7.78;6.88;;;4.00;99.90;;;;;;5135438;27;20182;-76
2023/01/03 19:35:19;;;;;;;6.32;5.72;;;4.00;99.90;;;;;;5138714;27;20198;-76
2023/01/03 19:37:46;;;;;;;10.13;8.65;;;4.00;99.90;;;;;;5143537;27;20194;-75
2023/01/03 19:40:15;;;;;;;9.35;8.35;;;4.00;99.90;;;;;;5150513;27;20204;-76
2023/01/03 19:42:49;;;;;;;9.10;7.75;;;3.90;99.90;;;;;;5163445;27;20178;-77
2023/01/03 19:45:21;;;;;;;8.43;7.35;;;3.90;99.90;;;;;;5164162;27;20229;-78
2023/01/03 19:47:48;;;;;;;12.50;10.25;;;3.90;99.90;;;;;;5157372;27;20178;-76